Time;durP1;ratioP1;P1;durP2;ratioP2;P2;SDS_P1;SDS_P2;PMS_P1;PMS_P2;Temp;Humidity;BMP_temperature;BMP_pressure;BME280_temperature;BME280_humidity;BME280_pressure;Samples;Min_cycle;Max_cycle;Signal;HPM_P1;HPM_P2
2022/02/25 00:00:27;;;;;;;11.30;5.00;;;128.00;2252.80;;;;;;5035012;28;20475;-80
2022/02/25 00:02:52;;;;;;;13.68;5.10;;;103.20;2227.20;;;;;;5034644;28;20076;-82
2022/02/25 00:05:18;;;;;;;;;;;103.00;2227.20;;;;;;5034693;28;20038;-82
2022/02/25 00:07:44;;;;;;;11.50;4.35;;;102.80;2227.20;;;;;;5034691;28;19905;-83
2022/02/25 00:10:13;;;;;;;13.23;4.68;;;102.70;2227.20;;;;;;5034264;28;20080;-80
2022/02/25 00:12:39;;;;;;;9.75;4.30;;;102.70;2227.20;;;;;;5034770;28;20471;-83
2022/02/25 00:15:05;;;;;;;15.38;4.93;;;102.80;2227.20;;;;;;5034714;28;20508;-83
2022/02/25 00:17:31;;;;;;;11.45;4.80;;;102.70;2227.20;;;;;;5034573;28;20033;-79
2022/02/25 00:19:57;;;;;;;;;;;102.70;2227.20;;;;;;5035078;28;20026;-83
2022/02/25 00:22:23;;;;;;;12.65;4.82;;;102.80;2227.20;;;;;;5034793;28;19913;-83
2022/02/25 00:24:49;;;;;;;13.25;5.10;;;102.80;2227.20;;;;;;5033932;28;20132;-83
2022/02/25 00:27:14;;;;;;;;;;;102.80;2227.20;;;;;;5034782;28;20064;-83
2022/02/25 00:29:40;;;;;;;13.30;5.43;;;102.70;2227.20;;;;;;5034110;28;19912;-82
2022/02/25 00:32:06;;;;;;;;;;;102.90;2227.20;;;;;;5035445;28;20515;-83
2022/02/25 00:34:31;;;;;;;12.00;5.38;;;102.80;2227.20;;;;;;5034803;28;19912;-80
2022/02/25 00:36:57;;;;;;;;;;;102.90;2227.20;;;;;;5035937;28;20099;-83
2022/02/25 00:39:23;;;;;;;18.40;6.38;;;102.90;2227.20;;;;;;5034990;28;20388;-82
2022/02/25 00:41:48;;;;;;;16.20;6.05;;;102.90;2227.20;;;;;;5038993;28;20025;-83
2022/02/25 00:44:14;;;;;;;;;;;102.80;2227.20;;;;;;5044492;28;20044;-78
2022/02/25 00:46:40;;;;;;;17.40;7.50;;;102.80;2227.20;;;;;;5042943;28;19916;-82
2022/02/25 00:49:07;;;;;;;;;;;102.60;2227.20;;;;;;5039869;28;20475;-79
2022/02/25 00:51:33;;;;;;;13.93;7.18;;;102.80;2227.20;;;;;;5045493;28;19959;-79
2022/02/25 00:53:59;;;;;;;23.58;7.00;;;102.80;2227.20;;;;;;5042565;28;20235;-83
2022/02/25 00:56:25;;;;;;;;;;;102.60;2227.20;;;;;;5041838;28;20018;-82
2022/02/25 00:58:53;;;;;;;17.27;7.35;;;102.60;2227.20;;;;;;5043385;28;19912;-80
2022/02/25 01:01:19;;;;;;;14.98;7.47;;;102.50;2227.20;;;;;;5042600;28;20018;-83
2022/02/25 01:03:45;;;;;;;;;;;102.60;2227.20;;;;;;5046482;28;20049;-79
2022/02/25 01:06:11;;;;;;;20.25;8.55;;;102.50;2227.20;;;;;;5043041;28;19905;-79
2022/02/25 01:08:37;;;;;;;23.10;8.90;;;102.50;2227.20;;;;;;5043443;28;20028;-80
2022/02/25 01:11:02;;;;;;;;;;;77.70;2227.20;;;;;;5040598;28;20041;-79
2022/02/25 01:13:28;;;;;;;22.63;8.90;;;77.70;2227.20;;;;;;5044553;28;20010;-83
2022/02/25 01:15:54;;;;;;;;;;;77.60;2227.20;;;;;;5043852;28;20025;-79
2022/02/25 01:18:20;;;;;;;21.95;8.80;;;77.70;2227.20;;;;;;5042512;28;19940;-80
2022/02/25 01:20:46;;;;;;;19.10;9.90;;;77.60;2227.20;;;;;;5043896;28;20020;-83
2022/02/25 01:23:13;;;;;;;26.48;10.13;;;77.50;2227.20;;;;;;5043673;28;20121;-83
2022/02/25 01:25:39;;;;;;;32.60;10.18;;;77.50;2227.20;;;;;;5044061;28;20071;-80
2022/02/25 01:28:05;;;;;;;20.35;8.98;;;77.60;2227.20;;;;;;5043683;28;20483;-79
2022/02/25 01:30:31;;;;;;;;;;;77.50;2227.20;;;;;;5042129;28;20137;-80
2022/02/25 01:32:57;;;;;;;24.48;8.98;;;77.60;2227.20;;;;;;5045243;28;19912;-80
2022/02/25 01:35:24;;;;;;;29.48;10.32;;;77.60;2227.20;;;;;;5041381;28;20116;-83
2022/02/25 01:37:50;;;;;;;24.80;10.50;;;77.60;2227.20;;;;;;5044642;28;20018;-81
2022/02/25 01:40:16;;;;;;;28.10;10.38;;;77.60;2227.20;;;;;;5042889;28;20074;-83
2022/02/25 01:42:44;;;;;;;;;;;77.70;2227.20;;;;;;5042782;28;20449;-83
2022/02/25 01:45:10;;;;;;;25.10;9.98;;;77.70;2227.20;;;;;;5043599;28;19905;-81
2022/02/25 01:47:36;;;;;;;;;;;77.70;2227.20;;;;;;5042071;28;20027;-83
2022/02/25 01:50:02;;;;;;;15.93;8.68;;;77.70;2227.20;;;;;;5043600;28;20252;-79
2022/02/25 01:52:27;;;;;;;23.17;9.77;;;77.70;2227.20;;;;;;5044520;28;20022;-83
2022/02/25 01:54:53;;;;;;;;;;;77.60;2227.20;;;;;;5043752;28;20107;-83
2022/02/25 01:57:19;;;;;;;20.67;8.27;;;77.60;2227.20;;;;;;5043073;28;19908;-84
2022/02/25 01:59:44;;;;;;;;;;;77.60;2227.20;;;;;;5044593;28;20021;-83
2022/02/25 02:02:11;;;;;;;27.25;9.68;;;77.50;2227.20;;;;;;5043000;28;19905;-79
2022/02/25 02:04:37;;;;;;;22.27;9.43;;;102.40;2227.20;;;;;;5045818;28;20120;-84
2022/02/25 02:07:03;;;;;;;;;;;77.50;2227.20;;;;;;5041920;28;20018;-79
2022/02/25 02:09:28;;;;;;;20.63;8.23;;;77.50;2227.20;;;;;;5042933;28;19928;-80
2022/02/25 02:11:55;;;;;;;;;;;77.50;2227.20;;;;;;5042914;28;20087;-83
2022/02/25 02:14:23;;;;;;;16.55;7.72;;;77.50;2227.20;;;;;;5044217;28;19904;-79
2022/02/25 02:16:51;;;;;;;23.48;9.70;;;77.60;2227.20;;;;;;5036773;28;20028;-84
2022/02/25 02:19:18;;;;;;;27.25;9.35;;;77.60;2227.20;;;;;;5042709;28;20026;-79
2022/02/25 02:21:53;;;;;;;21.23;10.00;;;77.70;2227.20;;;;;;5044798;28;20032;-82
2022/02/25 02:24:20;;;;;;;20.15;8.15;;;77.70;2227.20;;;;;;5042782;28;20059;-83
2022/02/25 02:26:47;;;;;;;20.17;8.77;;;77.70;2227.20;;;;;;5040872;28;20471;-78
2022/02/25 02:29:13;;;;;;;20.83;9.82;;;102.40;2227.20;;;;;;5039470;28;20134;-82
2022/02/25 02:31:40;;;;;;;19.23;8.25;;;102.40;2227.20;;;;;;5042488;28;20022;-83
2022/02/25 02:34:07;;;;;;;29.42;10.32;;;102.40;2227.20;;;;;;5037849;28;20021;-81
2022/02/25 02:36:33;;;;;;;23.23;9.68;;;102.50;2227.20;;;;;;5041176;28;20098;-83
2022/02/25 02:39:00;;;;;;;;;;;102.50;2227.20;;;;;;5041254;28;20578;-80
2022/02/25 02:41:25;;;;;;;28.27;8.10;;;102.50;2227.20;;;;;;5039958;28;19913;-82
2022/02/25 02:43:51;;;;;;;;;;;102.50;2227.20;;;;;;5040448;28;20110;-79
2022/02/25 02:46:17;;;;;;;15.15;7.03;;;102.50;2227.20;;;;;;5042299;28;19905;-79
2022/02/25 02:48:43;;;;;;;;;;;102.50;2227.20;;;;;;5041209;28;20029;-82
2022/02/25 02:51:10;;;;;;;23.52;9.32;;;102.50;2227.20;;;;;;5043574;28;20039;-83
2022/02/25 02:53:36;;;;;;;18.45;8.73;;;102.50;2227.20;;;;;;5041774;28;20430;-79
2022/02/25 02:56:02;;;;;;;16.48;7.38;;;102.50;2227.20;;;;;;5042708;28;20112;-79
2022/02/25 02:58:28;;;;;;;19.50;9.00;;;102.50;2227.20;;;;;;5045891;28;20127;-83
2022/02/25 03:00:54;;;;;;;15.45;7.53;;;102.60;2227.20;;;;;;5046048;28;20025;-79
2022/02/25 03:03:20;;;;;;;;;;;102.70;2227.20;;;;;;5046413;28;20199;-80
2022/02/25 03:05:46;;;;;;;19.17;9.48;;;102.70;2227.20;;;;;;5044565;28;20378;-83
2022/02/25 03:08:12;;;;;;;18.30;8.90;;;102.80;2227.20;;;;;;5046167;28;20017;-80
2022/02/25 03:10:38;;;;;;;;;;;102.70;2227.20;;;;;;5044074;28;20039;-79
2022/02/25 03:13:06;;;;;;;16.95;7.88;;;102.70;2227.20;;;;;;5044949;28;19905;-82
2022/02/25 03:15:32;;;;;;;21.63;8.05;;;102.70;2227.20;;;;;;5046226;28;20112;-82
2022/02/25 03:17:58;;;;;;;23.77;9.40;;;102.60;2227.20;;;;;;5045534;28;20025;-83
2022/02/25 03:20:24;;;;;;;;;;;102.60;2227.20;;;;;;5047111;28;20425;-80
2022/02/25 03:22:51;;;;;;;22.33;8.32;;;102.60;2227.20;;;;;;5041403;28;19952;-79
2022/02/25 03:25:18;;;;;;;19.38;8.02;;;102.60;2227.20;;;;;;5045057;28;20025;-83
2022/02/25 03:27:44;;;;;;;20.27;8.30;;;102.60;2227.20;;;;;;5048921;28;20013;-81
2022/02/25 03:30:10;;;;;;;;;;;102.50;2227.20;;;;;;5044523;28;20032;-79
2022/02/25 03:32:36;;;;;;;20.65;8.55;;;102.60;2227.20;;;;;;5045053;28;19905;-79
2022/02/25 03:35:02;;;;;;;;;;;102.50;2227.20;;;;;;5046517;28;20156;-82
2022/02/25 03:37:29;;;;;;;19.95;8.82;;;102.50;2227.20;;;;;;5043096;28;19996;-82
2022/02/25 03:39:56;;;;;;;20.23;8.60;;;102.40;2227.20;;;;;;5046052;28;20021;-81
2022/02/25 03:42:22;;;;;;;19.05;9.30;;;102.40;2227.20;;;;;;5042587;28;20057;-82
2022/02/25 03:44:48;;;;;;;21.98;9.20;;;102.40;2227.20;;;;;;5047247;28;20061;-82
2022/02/25 03:47:14;;;;;;;17.77;9.23;;;102.40;2227.20;;;;;;5046058;28;20104;-82
2022/02/25 03:49:39;;;;;;;;;;;102.40;2227.20;;;;;;5044486;28;20172;-79
2022/02/25 03:52:06;;;;;;;23.65;9.40;;;77.70;2227.20;;;;;;5043517;28;19905;-80
2022/02/25 03:54:32;;;;;;;22.17;9.25;;;102.40;2227.20;;;;;;5041834;28;20100;-80
2022/02/25 03:56:58;;;;;;;25.98;9.43;;;77.60;2227.20;;;;;;5044804;28;20028;-83
2022/02/25 03:59:24;;;;;;;;;;;77.60;2227.20;;;;;;5046122;28;20391;-83
2022/02/25 04:01:52;;;;;;;21.65;9.25;;;77.50;2227.20;;;;;;5043007;28;19964;-83
2022/02/25 04:04:26;;;;;;;23.65;10.80;;;77.40;2227.20;;;;;;5044485;28;20167;-83
2022/02/25 04:06:52;;;;;;;18.70;9.55;;;77.40;2227.20;;;;;;5042349;28;20033;-80
2022/02/25 04:09:18;;;;;;;18.90;10.20;;;77.30;2227.20;;;;;;5043242;28;20467;-83
2022/02/25 04:11:51;;;;;;;24.15;10.98;;;77.30;2227.20;;;;;;5044707;28;20043;-82
2022/02/25 04:14:21;;;;;;;18.80;9.15;;;77.20;2227.20;;;;;;5041713;28;20025;-84
2022/02/25 04:16:48;;;;;;;23.25;9.35;;;77.20;2227.20;;;;;;5040699;28;20045;-79
2022/02/25 04:19:15;;;;;;;25.60;12.00;;;77.20;2227.20;;;;;;5040767;28;20020;-81
2022/02/25 04:21:41;;;;;;;26.67;11.57;;;77.20;2227.20;;;;;;5043871;28;20024;-82
2022/02/25 04:24:07;;;;;;;26.35;11.57;;;77.20;2227.20;;;;;;5044427;28;20116;-78
2022/02/25 04:26:33;;;;;;;30.52;11.25;;;77.20;2227.20;;;;;;5039316;28;20539;-83
2022/02/25 04:28:59;;;;;;;;;;;77.20;2227.20;;;;;;5042460;28;20458;-82
2022/02/25 04:31:24;;;;;;;24.23;11.48;;;77.20;2227.20;;;;;;5041772;28;19941;-79
2022/02/25 04:33:50;;;;;;;;;;;77.20;2227.20;;;;;;5045917;28;20025;-80
2022/02/25 04:36:20;;;;;;;24.85;10.05;;;77.10;2227.20;;;;;;5042228;28;19912;-80
2022/02/25 04:38:46;;;;;;;24.95;12.68;;;77.10;2227.20;;;;;;5044254;28;20017;-79
2022/02/25 04:41:12;;;;;;;31.38;11.45;;;77.00;2227.20;;;;;;5041967;28;20042;-83
2022/02/25 04:43:37;;;;;;;28.98;11.52;;;77.00;2227.20;;;;;;5043058;28;20060;-83
2022/02/25 04:46:03;;;;;;;;;;;77.00;2227.20;;;;;;5044366;28;20434;-79
2022/02/25 04:48:29;;;;;;;29.35;10.82;;;77.00;2227.20;;;;;;5039950;28;19913;-82
2022/02/25 04:50:54;;;;;;;;;;;77.00;2227.20;;;;;;5040450;28;20029;-82
2022/02/25 04:53:20;;;;;;;26.90;11.32;;;76.80;2227.20;;;;;;5044931;28;20420;-79
2022/02/25 04:55:46;;;;;;;;;;;52.10;2227.20;;;;;;5044947;28;20033;-82
2022/02/25 04:58:16;;;;;;;28.38;11.88;;;76.80;2227.20;;;;;;5046103;28;19905;-83
2022/02/25 05:00:43;;;;;;;25.98;12.15;;;76.90;2227.20;;;;;;5043657;28;20047;-80
2022/02/25 05:03:10;;;;;;;33.15;14.15;;;76.80;2227.20;;;;;;5042435;28;20049;-83
2022/02/25 05:05:36;;;;;;;31.85;13.10;;;52.00;2227.20;;;;;;5039988;28;20017;-83
2022/02/25 05:08:01;;;;;;;;;;;76.90;2227.20;;;;;;5044013;28;20043;-81
2022/02/25 05:10:28;;;;;;;22.08;11.45;;;77.10;2227.20;;;;;;5046845;28;20414;-79
2022/02/25 05:12:54;;;;;;;23.63;10.85;;;77.10;2227.20;;;;;;5042101;28;20560;-83
2022/02/25 05:20:49;;;;;;;26.00;12.25;;;77.10;2227.20;;;;;;5044431;28;20075;-82
2022/02/25 05:23:15;;;;;;;25.60;11.60;;;77.10;2227.20;;;;;;5047418;28;20032;-82
2022/02/25 05:25:41;;;;;;;;;;;77.00;2227.20;;;;;;5042936;28;20029;-79
2022/02/25 05:28:07;;;;;;;27.60;11.20;;;77.10;2227.20;;;;;;5043532;28;19912;-83
2022/02/25 05:30:33;;;;;;;31.70;12.65;;;77.30;2227.20;;;;;;5044109;28;20044;-82
2022/02/25 05:32:59;;;;;;;30.15;13.00;;;77.10;2227.20;;;;;;5043841;28;20063;-82
2022/02/25 05:35:25;;;;;;;;;;;77.10;2227.20;;;;;;5042951;28;20056;-79
2022/02/25 05:37:51;;;;;;;26.63;11.23;;;77.00;2227.20;;;;;;5043299;28;19905;-79
2022/02/25 05:40:18;;;;;;;27.80;12.85;;;77.00;2227.20;;;;;;5041639;28;20024;-79
2022/02/25 05:42:45;;;;;;;29.73;12.00;;;76.90;2227.20;;;;;;5042543;28;20491;-83
2022/02/25 05:45:12;;;;;;;27.38;11.82;;;76.90;2227.20;;;;;;5042601;28;20044;-79
2022/02/25 05:47:38;;;;;;;25.85;12.40;;;76.80;2227.20;;;;;;5041728;28;20028;-83
2022/02/25 05:50:07;;;;;;;27.13;13.52;;;76.80;2227.20;;;;;;5046547;28;20020;-82
2022/02/25 05:52:34;;;;;;;28.63;12.18;;;76.80;2227.20;;;;;;5042091;28;20024;-83
2022/02/25 05:55:00;;;;;;;29.48;13.15;;;76.80;2227.20;;;;;;5039152;28;20029;-79
2022/02/25 05:57:26;;;;;;;27.58;13.48;;;76.90;2227.20;;;;;;5039743;28;20021;-83
2022/02/25 05:59:51;;;;;;;;;;;77.00;2227.20;;;;;;5042925;28;20021;-79
2022/02/25 06:02:17;;;;;;;25.95;12.32;;;77.10;2227.20;;;;;;5041295;28;19916;-79
2022/02/25 06:04:43;;;;;;;;;;;77.20;2227.20;;;;;;5042786;28;20391;-79
2022/02/25 06:07:08;;;;;;;30.80;14.20;;;77.10;2227.20;;;;;;5042415;28;20011;-82
2022/02/25 06:09:34;;;;;;;;;;;77.30;2227.20;;;;;;5044038;28;20128;-83
2022/02/25 06:12:00;;;;;;;24.83;11.43;;;77.30;2227.20;;;;;;5038196;28;19917;-82
2022/02/25 06:14:25;;;;;;;;;;;77.40;2227.20;;;;;;5043938;28;20044;-83
2022/02/25 06:16:51;;;;;;;29.08;12.68;;;77.50;2227.20;;;;;;5041721;28;19911;-82
2022/02/25 06:19:17;;;;;;;;;;;77.60;2227.20;;;;;;5045660;28;20017;-82
2022/02/25 06:21:43;;;;;;;29.80;13.02;;;77.70;2227.20;;;;;;5042128;28;19909;-79
2022/02/25 06:24:08;;;;;;;;;;;102.40;2227.20;;;;;;5043881;28;20067;-84
2022/02/25 06:26:34;;;;;;;29.30;12.10;;;77.70;2227.20;;;;;;5041199;28;20004;-84
2022/02/25 06:29:00;;;;;;;;;;;77.70;2227.20;;;;;;5043666;28;20025;-79
2022/02/25 06:31:25;;;;;;;28.38;13.43;;;102.40;2227.20;;;;;;5046252;28;19905;-82
2022/02/25 06:33:51;;;;;;;;;;;102.50;2227.20;;;;;;5043928;28;20018;-80
2022/02/25 06:36:17;;;;;;;48.38;21.40;;;102.50;2227.20;;;;;;5047243;28;19955;-82
2022/02/25 06:38:42;;;;;;;;;;;102.40;2227.20;;;;;;5048106;28;20025;-78
2022/02/25 06:41:08;;;;;;;47.92;22.52;;;102.40;2227.20;;;;;;5045577;28;19913;-83
2022/02/25 06:43:34;;;;;;;;;;;102.50;2227.20;;;;;;5046288;28;20029;-78
2022/02/25 06:46:00;;;;;;;41.70;19.48;;;102.60;2227.20;;;;;;5046619;28;20265;-80
2022/02/25 06:48:25;;;;;;;;;;;102.80;2227.20;;;;;;5046499;28;20419;-77
2022/02/25 06:50:51;;;;;;;57.72;20.23;;;102.80;2227.20;;;;;;5044864;28;19999;-77
2022/02/25 06:53:17;;;;;;;;;;;102.90;2227.20;;;;;;5047963;28;20032;-80
2022/02/25 06:55:44;;;;;;;46.97;20.80;;;102.90;2227.20;;;;;;5041777;28;19909;-77
2022/02/25 06:58:10;;;;;;;36.50;15.65;;;103.00;2227.20;;;;;;5044904;28;20029;-78
2022/02/25 07:00:36;;;;;;;;;;;103.00;2227.20;;;;;;5046205;28;20108;-76
2022/02/25 07:03:03;;;;;;;31.92;13.18;;;103.00;2227.20;;;;;;5043001;28;19923;-77
2022/02/25 07:05:30;;;;;;;32.28;13.50;;;103.00;2227.20;;;;;;5043193;28;20022;-82
2022/02/25 07:07:56;;;;;;;41.15;16.48;;;103.00;2227.20;;;;;;5037981;28;20030;-78
2022/02/25 07:10:22;;;;;;;30.42;14.98;;;103.20;2227.20;;;;;;5025976;28;20046;-80
2022/02/25 07:12:48;;;;;;;33.75;13.27;;;128.10;2252.80;;;;;;5024825;28;20057;-86
2022/02/25 07:15:14;;;;;;;;;;;128.10;2252.80;;;;;;5024742;28;20033;-92
2022/02/25 07:17:40;;;;;;;36.67;14.48;;;128.20;2252.80;;;;;;5024670;28;19913;-91
2022/02/25 07:20:06;;;;;;;;;;;128.20;2252.80;;;;;;5025772;28;20018;-87
2022/02/25 07:22:32;;;;;;;33.40;13.90;;;128.20;2252.80;;;;;;5018067;28;19949;-85
2022/02/25 07:24:57;;;;;;;;;;;128.20;2252.80;;;;;;5016325;28;20057;-85
2022/02/25 07:27:23;;;;;;;31.00;12.13;;;128.40;2252.80;;;;;;5016677;28;19906;-88
2022/02/25 07:29:49;;;;;;;;;;;128.40;2252.80;;;;;;5016206;28;20099;-93
2022/02/25 07:32:15;;;;;;;33.25;13.10;;;128.40;2252.80;;;;;;5015558;28;19906;-80
2022/02/25 07:34:41;;;;;;;;;;;128.50;2252.80;;;;;;5015913;28;20045;-79
2022/02/25 07:37:06;;;;;;;27.40;11.93;;;128.70;2252.80;;;;;;5015023;28;20506;-90
2022/02/25 07:39:32;;;;;;;;;;;128.80;2252.80;;;;;;5018441;28;20025;-88
2022/02/25 07:41:59;;;;;;;29.20;13.43;;;128.80;2252.80;;;;;;5022187;28;20315;-80
2022/02/25 07:44:26;;;;;;;30.48;12.98;;;128.90;2252.80;;;;;;5025416;28;20076;-82
2022/02/25 07:46:52;;;;;;;31.80;13.57;;;153.60;2252.80;;;;;;5023953;28;20030;-83
2022/02/25 07:49:19;;;;;;;33.42;15.07;;;153.70;2252.80;;;;;;5025025;28;20034;-81
2022/02/25 07:51:50;;;;;;;28.45;13.48;;;153.90;2252.80;;;;;;5021040;28;20038;-78
2022/02/25 07:54:16;;;;;;;23.63;10.60;;;154.10;2252.80;;;;;;5022186;28;20037;-83
2022/02/25 07:56:42;;;;;;;22.35;10.50;;;154.20;2252.80;;;;;;5025585;28;20025;-79
2022/02/25 07:59:08;;;;;;;;;;;154.40;2252.80;;;;;;5028396;28;20482;-82
2022/02/25 08:01:34;;;;;;;20.55;10.43;;;154.50;2252.80;;;;;;5034710;28;19912;-87
2022/02/25 08:03:59;;;;;;;;;;;179.20;2252.80;;;;;;5036179;28;20057;-79
2022/02/25 08:06:26;;;;;;;23.83;9.18;;;179.20;2252.80;;;;;;5034528;28;19913;-79
2022/02/25 08:08:52;;;;;;;24.42;11.32;;;179.30;2252.80;;;;;;5034527;28;20025;-80
2022/02/25 08:11:18;;;;;;;22.60;10.27;;;179.40;2252.80;;;;;;5035483;28;20039;-88
2022/02/25 08:13:45;;;;;;;22.85;10.43;;;179.50;2252.80;;;;;;5035367;28;20033;-84
2022/02/25 08:16:11;;;;;;;26.88;12.65;;;179.60;2252.80;;;;;;5034696;28;20391;-79
2022/02/25 08:18:37;;;;;;;25.45;10.32;;;179.80;2252.80;;;;;;5033805;28;20148;-83
2022/02/25 08:21:03;;;;;;;;;;;179.80;2252.80;;;;;;5035004;28;20068;-85
2022/02/25 08:23:28;;;;;;;19.98;8.93;;;180.00;2252.80;;;;;;5034191;28;19952;-80
2022/02/25 08:25:54;;;;;;;;;;;180.10;2252.80;;;;;;5035104;28;20395;-90
2022/02/25 08:28:21;;;;;;;17.45;8.60;;;204.80;2252.80;;;;;;5034406;28;19908;-82
2022/02/25 08:30:47;;;;;;;16.95;9.15;;;204.90;2252.80;;;;;;5034323;28;20479;-78
2022/02/25 08:33:14;;;;;;;28.95;10.10;;;205.00;2252.80;;;;;;5034371;28;20056;-79
2022/02/25 08:35:41;;;;;;;24.13;10.60;;;205.10;2252.80;;;;;;5034092;28;20080;-84
2022/02/25 08:38:07;;;;;;;19.23;9.05;;;205.10;2252.80;;;;;;5033969;28;20026;-85
2022/02/25 08:40:34;;;;;;;18.98;8.93;;;205.20;2252.80;;;;;;5033723;28;20041;-80
2022/02/25 08:43:00;;;;;;;20.67;11.10;;;205.20;2252.80;;;;;;5034271;28;20037;-84
2022/02/25 08:45:27;;;;;;;;;;;205.40;2252.80;;;;;;5035732;28;20365;-82
2022/02/25 08:47:53;;;;;;;27.30;11.25;;;205.50;2252.80;;;;;;5034839;28;19909;-82
2022/02/25 08:50:20;;;;;;;19.90;9.95;;;205.50;2252.80;;;;;;5034633;28;20113;-81
2022/02/25 08:52:49;;;;;;;18.35;10.02;;;205.60;2252.80;;;;;;5034337;28;20505;-78
2022/02/25 08:55:16;;;;;;;16.75;8.60;;;205.70;2252.80;;;;;;5033414;28;20104;-79
2022/02/25 08:57:42;;;;;;;20.67;9.27;;;230.40;2201.60;;;;;;5033129;28;20418;-78
2022/02/25 09:00:12;;;;;;;17.42;8.98;;;230.50;2252.80;;;;;;5032991;28;20025;-79
2022/02/25 09:02:39;;;;;;;15.40;7.50;;;230.50;2227.20;;;;;;5033220;28;20037;-80
2022/02/25 09:05:06;;;;;;;18.70;9.32;;;230.60;2073.60;;;;;;5033154;28;20029;-78
2022/02/25 09:07:32;;;;;;;18.42;8.43;;;230.70;2124.80;;;;;;5033131;28;20028;-78
2022/02/25 09:09:59;;;;;;;23.58;9.52;;;230.70;2150.40;;;;;;5033124;28;20040;-79
2022/02/25 09:12:25;;;;;;;21.00;9.70;;;230.80;2150.40;;;;;;5016121;28;20484;-81
2022/02/25 09:14:51;;;;;;;18.92;8.63;;;230.90;2048.00;;;;;;5032397;28;20041;-79
2022/02/25 09:17:17;;;;;;;21.10;9.80;;;230.90;2099.20;;;;;;5033341;28;20025;-79
2022/02/25 09:19:43;;;;;;;16.77;9.50;;;231.00;1971.20;;;;;;5032536;28;20073;-80
2022/02/25 09:22:09;;;;;;;19.40;9.18;;;231.10;1971.20;;;;;;5033056;28;20668;-77
2022/02/25 09:24:35;;;;;;;;;;;231.20;1971.20;;;;;;5033498;28;20053;-81
2022/02/25 09:27:01;;;;;;;20.65;9.63;;;231.30;1996.80;;;;;;5032438;28;19905;-78
2022/02/25 09:29:27;;;;;;;18.55;7.32;;;256.00;1996.80;;;;;;5033075;28;20021;-79
2022/02/25 09:31:52;;;;;;;;;;;256.20;1920.00;;;;;;5033069;28;20522;-79
2022/02/25 09:34:18;;;;;;;18.13;7.80;;;256.30;1894.40;;;;;;5032082;28;19955;-79
2022/02/25 09:36:45;;;;;;;23.17;8.38;;;256.50;1894.40;;;;;;5033964;28;20101;-81
2022/02/25 09:39:11;;;;;;;15.68;9.05;;;256.60;1868.80;;;;;;5032563;28;20083;-79
2022/02/25 09:41:41;;;;;;;15.50;7.70;;;256.70;1843.20;;;;;;5033453;28;20044;-79
2022/02/25 09:44:07;;;;;;;17.40;8.70;;;256.70;1868.80;;;;;;5032413;28;20130;-79
2022/02/25 09:46:33;;;;;;;18.58;9.43;;;256.90;1843.20;;;;;;5033501;28;20022;-79
2022/02/25 09:48:59;;;;;;;18.50;9.10;;;281.60;1868.80;;;;;;5033598;28;20506;-79
2022/02/25 09:51:26;;;;;;;23.42;9.40;;;281.80;1792.00;;;;;;5032498;28;20026;-79
2022/02/25 09:53:52;;;;;;;18.85;8.80;;;282.00;1740.80;;;;;;5031853;28;20483;-78
2022/02/25 09:56:18;;;;;;;19.05;9.65;;;282.20;1715.20;;;;;;5031970;28;20026;-79
2022/02/25 09:58:45;;;;;;;23.42;9.98;;;282.40;1715.20;;;;;;5032377;28;20116;-80
2022/02/25 10:01:13;;;;;;;15.82;8.20;;;282.10;1689.60;;;;;;5032745;28;20160;-80
2022/02/25 10:03:39;;;;;;;21.15;10.65;;;282.50;1689.60;;;;;;5031438;28;20046;-82
2022/02/25 10:06:08;;;;;;;18.88;10.88;;;307.40;1740.80;;;;;;5035372;28;20586;-82
2022/02/25 10:08:35;;;;;;;26.88;10.20;;;307.70;1689.60;;;;;;5037576;28;20419;-81
2022/02/25 10:11:02;;;;;;;26.38;11.85;;;307.80;1612.80;;;;;;5036898;28;20056;-80
2022/02/25 10:13:31;;;;;;;41.47;19.63;;;308.00;1638.40;;;;;;5036684;28;20021;-81
2022/02/25 10:16:00;;;;;;;16.30;8.82;;;308.10;1664.00;;;;;;5036843;28;20064;-82
2022/02/25 10:18:31;;;;;;;16.30;8.43;;;332.90;1561.60;;;;;;5035616;28;20041;-81
2022/02/25 10:21:08;;;;;;;15.25;7.63;;;332.90;1536.00;;;;;;5036785;28;20064;-81
2022/02/25 10:23:43;;;;;;;18.85;8.18;;;332.90;1536.00;;;;;;5036395;28;20049;-82
2022/02/25 10:26:11;;;;;;;22.08;9.60;;;333.00;1510.40;;;;;;5036798;28;20021;-81
2022/02/25 10:28:41;;;;;;;15.82;8.38;;;333.20;1536.00;;;;;;5036428;28;20025;-83
2022/02/25 10:31:25;;;;;;;15.85;8.18;;;333.50;1510.40;;;;;;5036639;28;20024;-84
2022/02/25 10:34:18;;;;;;;18.15;8.05;;;358.40;1536.00;;;;;;5036227;28;20507;-86
2022/02/25 10:36:51;;;;;;;14.15;7.78;;;358.40;1536.00;;;;;;5032627;28;20043;-85
2022/02/25 10:39:30;;;;;;;13.15;6.85;;;333.70;1536.00;;;;;;5036288;28;20025;-90
2022/02/25 10:42:06;;;;;;;18.75;8.18;;;358.60;1484.80;;;;;;5036743;28;20056;-92
2022/02/25 10:44:43;;;;;;;19.10;8.02;;;358.60;1484.80;;;;;;5036540;28;20042;-86
2022/02/25 10:47:15;;;;;;;;;;;358.70;1459.20;;;;;;5038106;28;20497;-82
2022/02/25 10:49:41;;;;;;;19.10;9.32;;;358.90;1433.60;;;;;;5035853;28;20321;-88
2022/02/25 10:52:30;;;;;;;11.95;7.82;;;359.10;1433.60;;;;;;5036183;28;20022;-90
2022/02/25 10:54:57;;;;;;;20.55;9.80;;;359.00;1433.60;;;;;;5035401;28;20025;-80
2022/02/25 10:57:25;;;;;;;20.27;10.65;;;359.00;1459.20;;;;;;5035821;28;20021;-81
2022/02/25 10:59:51;;;;;;;25.00;10.75;;;359.30;1459.20;;;;;;5036076;28;20112;-79
2022/02/25 11:02:28;;;;;;;21.20;10.70;;;384.00;1433.60;;;;;;5026402;28;20049;-86
2022/02/25 11:05:01;;;;;;;21.40;12.15;;;384.10;1433.60;;;;;;5026585;28;20056;-80
2022/02/25 11:07:28;;;;;;;22.92;12.25;;;359.30;1459.20;;;;;;5026334;28;20026;-85
2022/02/25 11:09:54;;;;;;;26.65;13.02;;;359.10;1459.20;;;;;;5024506;28;20026;-87
2022/02/25 11:12:20;;;;;;;32.15;13.25;;;359.10;1459.20;;;;;;5025422;28;20033;-89
2022/02/25 11:14:46;;;;;;;20.95;12.65;;;359.30;1484.80;;;;;;5023833;28;20030;-81
2022/02/25 11:17:13;;;;;;;21.83;11.73;;;359.20;1459.20;;;;;;5016883;28;20026;-85
2022/02/25 11:19:40;;;;;;;19.23;11.65;;;359.10;1459.20;;;;;;5016059;28;20070;-89
2022/02/25 11:22:08;;;;;;;19.80;11.48;;;384.10;1433.60;;;;;;5016768;28;20179;-79
2022/02/25 11:24:38;;;;;;;19.92;11.95;;;384.00;1408.00;;;;;;5015369;28;20040;-82
2022/02/25 11:27:05;;;;;;;24.77;11.30;;;384.30;1408.00;;;;;;5015465;28;20025;-81
2022/02/25 11:29:36;;;;;;;25.95;11.85;;;384.30;1382.40;;;;;;5015482;28;20041;-81
2022/02/25 11:32:06;;;;;;;18.35;11.43;;;384.70;1356.80;;;;;;5025135;28;20029;-81
2022/02/25 11:34:32;;;;;;;19.17;11.30;;;384.90;1356.80;;;;;;5047483;28;20022;-80
2022/02/25 11:36:58;;;;;;;21.63;9.98;;;384.90;1331.20;;;;;;5038339;28;20451;-80
2022/02/25 11:39:29;;;;;;;17.83;9.60;;;409.90;1280.00;;;;;;5038637;28;20040;-82
2022/02/25 11:42:01;;;;;;;19.60;10.10;;;409.80;1280.00;;;;;;5035867;28;20041;-82
2022/02/25 11:44:28;;;;;;;22.05;11.05;;;409.90;1280.00;;;;;;5037322;28;20033;-81
2022/02/25 11:46:55;;;;;;;23.25;11.98;;;410.20;1280.00;;;;;;5035467;28;20037;-85
2022/02/25 11:49:23;;;;;;;21.33;11.45;;;410.00;1280.00;;;;;;5037597;28;20060;-82
2022/02/25 11:51:52;;;;;;;22.15;10.95;;;409.80;1305.60;;;;;;5044474;28;20017;-81
2022/02/25 11:54:24;;;;;;;20.98;11.65;;;409.90;1305.60;;;;;;5045416;28;20021;-80
2022/02/25 11:57:04;;;;;;;29.02;11.63;;;410.20;1305.60;;;;;;5040660;28;20018;-80
2022/02/25 11:59:33;;;;;;;23.42;12.68;;;410.00;1305.60;;;;;;5041671;28;20037;-89
2022/02/25 12:02:13;;;;;;;23.50;12.02;;;410.30;1331.20;;;;;;5042832;28;20033;-79
2022/02/25 12:04:43;;;;;;;22.10;12.38;;;410.50;1331.20;;;;;;5044258;28;20048;-81
2022/02/25 12:07:11;;;;;;;19.80;10.77;;;410.50;1305.60;;;;;;5043517;28;20056;-80
2022/02/25 12:09:55;;;;;;;17.33;9.85;;;410.30;1305.60;;;;;;5045884;28;20029;-80
2022/02/25 12:12:24;;;;;;;23.05;11.82;;;410.40;1305.60;;;;;;5036290;28;20503;-83
2022/02/25 12:15:23;;;;;;;28.38;13.95;;;410.10;1305.60;;;;;;5035691;28;20030;-88
2022/02/25 12:17:50;;;;;;;19.27;10.88;;;410.40;1331.20;;;;;;5034728;28;20063;-83
2022/02/25 12:20:40;;;;;;;20.85;10.90;;;410.00;1331.20;;;;;;5035648;28;20025;-83
2022/02/25 12:23:23;;;;;;;22.48;10.50;;;410.40;1305.60;;;;;;5030661;28;20132;-83
2022/02/25 12:25:55;;;;;;;24.83;14.18;;;410.30;1331.20;;;;;;5029614;28;20069;-82
2022/02/25 12:28:27;;;;;;;22.17;11.43;;;435.40;1305.60;;;;;;5025139;28;20017;-80
2022/02/25 12:31:09;;;;;;;26.60;12.90;;;435.30;1305.60;;;;;;5023603;28;20057;-87